Time;durP1;ratioP1;P1;durP2;ratioP2;P2;SDS_P1;SDS_P2;PMS_P1;PMS_P2;Temp;Humidity;BMP_temperature;BMP_pressure;BME280_temperature;BME280_humidity;BME280_pressure;Samples;Min_cycle;Max_cycle;Signal;HPM_P1;HPM_P2
2022/09/12 00:01:07;;;;;;;0.80;0.80;;;23.30;47.50;;;;;;5034207;28;20398;-10
2022/09/12 00:03:33;;;;;;;0.95;0.90;;;23.30;47.60;;;;;;5051574;28;20512;-9
2022/09/12 00:05:59;;;;;;;0.82;0.82;;;23.30;47.50;;;;;;5051531;28;20139;-10
2022/09/12 00:08:24;;;;;;;0.73;0.73;;;23.30;47.50;;;;;;5051236;28;20127;-10
2022/09/12 00:10:50;;;;;;;0.95;0.95;;;23.30;47.50;;;;;;5051367;28;20131;-10
2022/09/12 00:13:15;;;;;;;1.10;1.00;;;23.30;47.50;;;;;;5051498;28;20052;-10
2022/09/12 00:15:43;;;;;;;0.82;0.82;;;23.30;47.60;;;;;;5051438;28;20553;-10
2022/09/12 00:18:14;;;;;;;0.85;0.85;;;23.30;48.10;;;;;;5051306;28;20049;-9
2022/09/12 00:20:45;;;;;;;0.80;0.80;;;23.30;47.50;;;;;;5051339;28;20053;-10
2022/09/12 00:23:11;;;;;;;1.02;0.98;;;23.30;48.10;;;;;;5051440;28;20094;-9
2022/09/12 00:25:44;;;;;;;0.90;0.90;;;23.30;47.60;;;;;;5051446;28;20076;-10
2022/09/12 00:28:15;;;;;;;0.80;0.80;;;23.30;47.60;;;;;;5051394;28;20056;-10
2022/09/12 00:30:46;;;;;;;1.00;1.00;;;23.30;47.60;;;;;;5051071;28;20064;-10
2022/09/12 00:33:12;;;;;;;0.80;0.80;;;23.30;47.60;;;;;;5050994;28;20064;-10
2022/09/12 00:35:44;;;;;;;0.90;0.90;;;23.30;47.60;;;;;;5051031;28;20098;-10
2022/09/12 00:38:10;;;;;;;0.70;0.70;;;23.30;47.60;;;;;;5051160;28;20057;-10
2022/09/12 00:40:36;;;;;;;0.82;0.82;;;23.30;47.60;;;;;;5050824;28;20056;-9
2022/09/12 00:43:01;;;;;;;0.80;0.80;;;23.30;47.60;;;;;;5051126;28;20053;-9
2022/09/12 00:45:29;;;;;;;1.10;1.00;;;23.30;47.60;;;;;;5051323;28;20052;-9
2022/09/12 00:47:58;;;;;;;1.05;0.90;;;23.30;47.60;;;;;;5051458;28;20102;-10
2022/09/12 00:50:25;;;;;;;0.70;0.70;;;23.30;47.60;;;;;;5051250;28;20458;-10
2022/09/12 00:53:06;;;;;;;0.80;0.80;;;23.30;47.60;;;;;;5050829;28;20067;-10
2022/09/12 00:55:39;;;;;;;0.90;0.90;;;23.30;47.70;;;;;;5051085;28;20057;-9
2022/09/12 00:58:13;;;;;;;0.88;0.88;;;23.30;47.70;;;;;;5051069;28;20382;-9
2022/09/12 01:00:39;;;;;;;0.95;0.95;;;23.20;47.70;;;;;;5050731;28;20049;-9
2022/09/12 01:03:10;;;;;;;0.85;0.85;;;23.20;47.70;;;;;;5051142;28;20383;-10
2022/09/12 01:05:43;;;;;;;0.98;0.98;;;23.30;47.70;;;;;;5051044;28;20094;-10
2022/09/12 01:08:09;;;;;;;0.90;0.90;;;23.20;47.60;;;;;;5050833;28;20045;-10
2022/09/12 01:10:37;;;;;;;0.95;0.95;;;23.20;47.70;;;;;;5050636;28;20045;-10
2022/09/12 01:13:05;;;;;;;0.85;0.85;;;23.20;47.70;;;;;;5050595;28;20070;-10
2022/09/12 01:15:31;;;;;;;0.80;0.80;;;23.20;47.60;;;;;;5050600;28;20053;-10
2022/09/12 01:18:13;;;;;;;1.00;1.00;;;23.20;47.60;;;;;;5051085;28;20063;-10
2022/09/12 01:20:54;;;;;;;0.90;0.90;;;23.20;47.60;;;;;;5051015;28;20053;-10
2022/09/12 01:23:52;;;;;;;1.27;1.17;;;23.20;47.70;;;;;;5050637;28;20140;-10
2022/09/12 01:26:23;;;;;;;0.98;0.98;;;23.20;47.60;;;;;;5050755;28;20048;-10
2022/09/12 01:29:14;;;;;;;0.88;0.88;;;23.20;47.60;;;;;;5050488;28;20053;-10
2022/09/12 01:32:18;;;;;;;0.80;0.80;;;23.20;47.60;;;;;;5050391;28;20642;-10
2022/09/12 01:35:03;;;;;;;0.95;0.95;;;23.30;47.60;;;;;;5066870;28;20068;-10
2022/09/12 01:37:37;;;;;;;0.80;0.80;;;23.30;47.60;;;;;;5050218;28;20064;-10
2022/09/12 01:40:20;;;;;;;1.13;1.02;;;23.30;47.70;;;;;;5050100;28;20063;-10
2022/09/12 01:42:56;;;;;;;1.10;1.00;;;23.20;47.60;;;;;;5050655;28;20090;-10
2022/09/12 01:45:39;;;;;;;0.90;0.90;;;23.20;47.70;;;;;;5049797;28;20434;-10
2022/09/12 01:48:27;;;;;;;0.80;0.80;;;23.20;47.60;;;;;;5050338;28;20045;-10
2022/09/12 01:51:02;;;;;;;0.80;0.80;;;23.20;47.60;;;;;;5050254;28;20512;-9
2022/09/12 01:53:42;;;;;;;0.90;0.90;;;23.30;47.70;;;;;;5050289;28;20109;-10
2022/09/12 01:56:12;;;;;;;0.80;0.80;;;23.30;47.60;;;;;;5050193;28;20516;-10
2022/09/12 01:58:43;;;;;;;0.90;0.82;;;23.20;47.60;;;;;;5050509;28;20084;-10
2022/09/12 02:01:15;;;;;;;1.02;0.93;;;23.20;47.70;;;;;;5032259;28;20049;-10
2022/09/12 02:03:50;;;;;;;0.90;0.90;;;23.20;47.70;;;;;;5050099;28;20052;-10
2022/09/12 02:06:23;;;;;;;0.88;0.88;;;23.20;47.70;;;;;;5050296;28;20073;-10
2022/09/12 02:08:56;;;;;;;0.90;0.90;;;23.20;47.70;;;;;;5050041;28;20049;-10
2022/09/12 02:11:22;;;;;;;0.85;0.85;;;23.20;47.70;;;;;;5050329;28;20052;-9
2022/09/12 02:14:03;;;;;;;0.98;0.98;;;23.20;47.70;;;;;;5050435;28;20049;-9
2022/09/12 02:16:46;;;;;;;0.82;0.82;;;23.20;47.70;;;;;;5050285;28;20060;-10
2022/09/12 02:19:20;;;;;;;0.70;0.70;;;23.20;47.70;;;;;;5049682;28;20041;-10
2022/09/12 02:21:53;;;;;;;1.10;1.00;;;23.20;47.70;;;;;;5050075;28;20049;-10
2022/09/12 02:24:21;;;;;;;0.88;0.88;;;23.20;47.80;;;;;;5049764;28;20098;-10
2022/09/12 02:26:51;;;;;;;0.90;0.90;;;23.20;47.70;;;;;;5049713;28;20060;-10
2022/09/12 02:29:17;;;;;;;0.57;0.57;;;23.20;47.70;;;;;;5049750;28;20041;-10
2022/09/12 02:31:53;;;;;;;0.93;0.93;;;23.20;47.70;;;;;;5050211;28;20056;-10
2022/09/12 02:34:43;;;;;;;0.95;0.90;;;23.20;47.80;;;;;;5049871;28;20053;-10
2022/09/12 02:37:43;;;;;;;0.68;0.68;;;23.20;47.80;;;;;;5049619;28;20052;-9
2022/09/12 02:40:11;;;;;;;0.85;0.85;;;23.20;47.80;;;;;;5049763;28;20494;-9
2022/09/12 02:42:37;;;;;;;1.08;0.98;;;23.20;47.70;;;;;;5049518;28;20433;-10
2022/09/12 02:45:03;;;;;;;0.70;0.70;;;23.20;47.80;;;;;;5049534;28;20048;-10
2022/09/12 02:47:38;;;;;;;1.00;0.90;;;23.20;47.80;;;;;;5049441;28;20048;-10
2022/09/12 02:50:06;;;;;;;0.88;0.88;;;23.20;47.80;;;;;;5049284;28;20490;-9
2022/09/12 02:52:33;;;;;;;0.70;0.70;;;23.20;47.80;;;;;;5049218;28;20140;-9
2022/09/12 02:54:59;;;;;;;0.80;0.80;;;23.20;47.80;;;;;;5049237;28;20052;-9
2022/09/12 02:57:25;;;;;;;0.90;0.90;;;23.20;47.80;;;;;;5050648;28;20060;-10
2022/09/12 02:59:56;;;;;;;0.90;0.90;;;23.20;47.90;;;;;;5052394;28;20053;-10
2022/09/12 03:02:40;;;;;;;;;;;23.20;47.80;;;;;;5052961;28;20109;-10
2022/09/12 03:05:37;;;;;;;0.90;0.90;;;23.20;47.80;;;;;;5052594;28;20008;-9
2022/09/12 03:08:08;;;;;;;0.93;0.93;;;23.20;47.80;;;;;;5052188;28;20131;-10
2022/09/12 03:10:56;;;;;;;0.90;0.90;;;23.20;47.80;;;;;;5052333;28;20145;-9
2022/09/12 03:14:04;;;;;;;0.90;0.90;;;23.10;47.80;;;;;;5052428;28;20057;-9
2022/09/12 03:16:55;;;;;;;1.10;1.00;;;23.10;47.80;;;;;;5052216;28;20052;-10
2022/09/12 03:19:32;;;;;;;1.00;1.00;;;23.20;47.80;;;;;;5051910;28;20504;-9
2022/09/12 03:22:41;;;;;;;1.05;1.00;;;23.20;47.80;;;;;;5051941;28;20053;-10
2022/09/12 03:25:17;;;;;;;0.85;0.85;;;23.10;47.80;;;;;;5051899;28;20474;-10
2022/09/12 03:28:07;;;;;;;0.90;0.90;;;23.10;47.90;;;;;;5052071;28;20409;-10
2022/09/12 03:30:50;;;;;;;1.33;0.85;;;23.10;47.90;;;;;;5034314;28;20094;-9
2022/09/12 03:33:21;;;;;;;1.85;1.05;;;23.10;47.90;;;;;;5052254;28;20060;-9
2022/09/12 03:35:48;;;;;;;0.80;0.80;;;23.10;47.90;;;;;;5051909;28;20057;-10
2022/09/12 03:38:14;;;;;;;0.73;0.73;;;23.10;47.90;;;;;;5051735;28;20061;-10
2022/09/12 03:40:40;;;;;;;0.90;0.90;;;23.10;47.90;;;;;;5052025;28;20059;-10
2022/09/12 03:43:07;;;;;;;1.20;1.10;;;23.10;47.90;;;;;;5051678;28;20057;-9
2022/09/12 03:45:33;;;;;;;1.15;1.05;;;23.10;47.90;;;;;;5052295;28;20056;-9
2022/09/12 03:47:59;;;;;;;0.80;0.80;;;23.10;48.00;;;;;;5051566;28;20093;-10
2022/09/12 03:50:25;;;;;;;0.93;0.93;;;23.10;48.00;;;;;;5051792;28;20041;-10
2022/09/12 03:52:50;;;;;;;0.90;0.90;;;23.10;48.00;;;;;;5051961;28;20084;-9
2022/09/12 03:55:16;;;;;;;0.88;0.88;;;23.10;47.90;;;;;;5051714;28;20056;-9
2022/09/12 03:57:43;;;;;;;0.90;0.90;;;23.10;47.90;;;;;;5051366;28;20057;-10
2022/09/12 04:00:11;;;;;;;0.93;0.93;;;23.10;47.90;;;;;;5052146;28;20056;-10
2022/09/12 04:02:42;;;;;;;0.80;0.80;;;23.10;47.90;;;;;;5051640;28;20494;-10
2022/09/12 04:05:07;;;;;;;0.70;0.70;;;23.10;47.90;;;;;;5051905;28;20060;-10
2022/09/12 04:07:33;;;;;;;0.80;0.80;;;23.10;47.90;;;;;;5050738;28;20057;-10
2022/09/12 04:09:58;;;;;;;0.85;0.85;;;23.10;48.00;;;;;;5051827;28;20087;-10
2022/09/12 04:12:24;;;;;;;1.35;0.98;;;23.10;47.90;;;;;;5051076;28;20056;-10
2022/09/12 04:14:50;;;;;;;0.82;0.82;;;23.10;47.90;;;;;;5051994;28;20064;-9
2022/09/12 04:17:16;;;;;;;1.10;1.00;;;23.10;47.90;;;;;;5051221;28;20426;-10
2022/09/12 04:19:41;;;;;;;1.02;1.00;;;23.10;47.90;;;;;;5051754;28;20086;-10
2022/09/12 04:22:07;;;;;;;1.17;1.08;;;23.10;48.00;;;;;;5051311;28;20045;-10
2022/09/12 04:24:32;;;;;;;1.13;1.02;;;23.00;47.90;;;;;;5051943;28;20049;-10
2022/09/12 04:26:58;;;;;;;0.93;0.90;;;23.10;47.90;;;;;;5051298;28;20497;-10
2022/09/12 04:29:23;;;;;;;0.98;0.98;;;23.10;47.90;;;;;;5051399;28;20627;-10
2022/09/12 04:31:49;;;;;;;0.80;0.80;;;23.10;47.90;;;;;;5051265;28;20061;-10
2022/09/12 04:34:15;;;;;;;0.85;0.85;;;23.10;48.00;;;;;;5051270;28;20073;-10
2022/09/12 04:36:40;;;;;;;0.82;0.82;;;23.10;47.90;;;;;;5051085;28;20045;-10
2022/09/12 04:39:06;;;;;;;1.20;1.10;;;23.10;48.00;;;;;;5050927;28;20466;-10
2022/09/12 04:41:37;;;;;;;0.80;0.80;;;23.10;47.90;;;;;;5051663;28;20059;-10
2022/09/12 04:44:12;;;;;;;0.80;0.80;;;23.10;48.00;;;;;;5051415;28;20428;-10
2022/09/12 04:46:43;;;;;;;1.20;1.10;;;23.10;48.00;;;;;;5050969;28;20060;-10
2022/09/12 04:49:10;;;;;;;1.08;1.00;;;23.00;47.90;;;;;;5051285;28;20132;-10
2022/09/12 04:51:37;;;;;;;0.80;0.80;;;23.10;48.00;;;;;;5051271;28;20053;-9
2022/09/12 04:54:06;;;;;;;0.90;0.80;;;23.10;48.00;;;;;;5050874;28;20057;-10
2022/09/12 04:56:35;;;;;;;2.05;1.10;;;23.10;47.90;;;;;;5051085;28;20052;-10
2022/09/12 04:59:00;;;;;;;1.15;0.90;;;23.10;47.90;;;;;;5050596;28;20084;-10
2022/09/12 05:01:28;;;;;;;0.93;0.93;;;23.10;48.00;;;;;;5050768;28;20072;-9
2022/09/12 05:03:56;;;;;;;0.90;0.90;;;23.10;48.00;;;;;;5050766;28;20048;-9
2022/09/12 05:06:24;;;;;;;1.00;0.90;;;23.10;48.00;;;;;;5050824;28;20056;-10
2022/09/12 05:08:51;;;;;;;1.00;1.00;;;23.10;47.90;;;;;;5050548;28;20414;-9
2022/09/12 05:11:22;;;;;;;1.20;1.10;;;23.10;47.90;;;;;;5050717;28;20045;-10
2022/09/12 05:13:48;;;;;;;;;;;23.10;47.90;;;;;;5051088;28;20061;-10
2022/09/12 05:16:15;;;;;;;0.85;0.85;;;23.10;47.90;;;;;;5050653;28;19924;-10
2022/09/12 05:18:43;;;;;;;1.08;1.08;;;23.10;47.80;;;;;;5050255;28;20080;-9
2022/09/12 05:21:11;;;;;;;0.90;0.90;;;23.10;47.90;;;;;;5049399;28;20447;-9
2022/09/12 05:23:36;;;;;;;1.00;1.00;;;23.10;47.80;;;;;;5050619;28;20057;-10
2022/09/12 05:26:04;;;;;;;1.15;1.05;;;23.10;47.80;;;;;;5050826;28;20059;-9
2022/09/12 05:28:34;;;;;;;1.17;1.08;;;23.20;47.80;;;;;;5050439;28;20477;-9
2022/09/12 05:31:01;;;;;;;1.17;1.08;;;23.20;47.80;;;;;;5050308;28;20379;-10
2022/09/12 05:33:27;;;;;;;1.15;1.05;;;23.20;47.80;;;;;;5050357;28;20060;-10
2022/09/12 05:35:53;;;;;;;0.95;0.95;;;23.20;47.70;;;;;;5049138;28;20144;-10
2022/09/12 05:38:19;;;;;;;1.00;0.90;;;23.30;47.70;;;;;;5050208;28;20125;-10
2022/09/12 05:40:44;;;;;;;1.25;1.10;;;23.30;47.70;;;;;;5050217;28;20052;-10
2022/09/12 05:43:11;;;;;;;1.00;1.00;;;23.30;47.70;;;;;;5050308;28;20136;-9
2022/09/12 05:45:37;;;;;;;1.35;1.05;;;23.30;47.70;;;;;;5050255;28;20524;-10
2022/09/12 05:48:03;;;;;;;1.73;1.15;;;23.30;47.80;;;;;;5050245;28;20061;-10
2022/09/12 05:50:29;;;;;;;1.58;1.20;;;23.30;47.90;;;;;;5050170;28;20048;-10
2022/09/12 05:52:56;;;;;;;1.10;1.00;;;23.30;47.90;;;;;;5050485;28;20464;-11
2022/09/12 05:55:22;;;;;;;1.55;1.30;;;23.30;48.00;;;;;;5050313;28;20474;-11
2022/09/12 05:57:48;;;;;;;1.85;1.60;;;23.30;48.00;;;;;;5050094;28;20436;-10
2022/09/12 06:00:15;;;;;;;1.92;1.40;;;23.30;48.10;;;;;;5050107;28;20158;-10
2022/09/12 06:02:44;;;;;;;1.75;1.33;;;23.30;48.00;;;;;;5049942;28;20493;-10
2022/09/12 06:05:11;;;;;;;2.78;1.40;;;23.20;48.00;;;;;;5049977;28;20089;-11
2022/09/12 06:07:36;;;;;;;2.78;1.58;;;23.30;48.10;;;;;;5049923;28;20057;-10
2022/09/12 06:10:04;;;;;;;1.60;1.30;;;23.30;48.10;;;;;;5049626;28;20052;-11
2022/09/12 06:12:29;;;;;;;2.45;1.50;;;23.30;48.10;;;;;;5049484;28;20056;-11
2022/09/12 06:14:55;;;;;;;2.47;1.75;;;23.30;48.10;;;;;;5049843;28;20120;-11
2022/09/12 06:17:21;;;;;;;2.92;1.67;;;23.30;48.10;;;;;;5049526;28;20057;-11
2022/09/12 06:19:50;;;;;;;3.22;1.52;;;23.30;48.10;;;;;;5049602;28;20052;-11
2022/09/12 06:22:17;;;;;;;1.92;1.58;;;23.30;48.10;;;;;;5049538;28;20053;-11
2022/09/12 06:24:43;;;;;;;4.75;1.65;;;23.30;48.10;;;;;;5049671;28;20151;-11
2022/09/12 06:27:08;;;;;;;5.55;1.83;;;23.30;48.00;;;;;;5050297;28;20084;-11
2022/09/12 06:29:34;;;;;;;1.67;1.40;;;23.30;48.00;;;;;;5049856;28;20447;-11
2022/09/12 06:32:00;;;;;;;1.60;1.50;;;23.30;48.00;;;;;;5049615;28;20053;-11
2022/09/12 06:34:26;;;;;;;2.65;1.60;;;23.40;47.90;;;;;;5049676;28;20056;-11
2022/09/12 06:36:51;;;;;;;2.95;1.63;;;23.40;47.90;;;;;;5049702;28;20486;-11
2022/09/12 06:39:19;;;;;;;2.50;1.60;;;23.40;47.80;;;;;;5049469;28;20413;-11
2022/09/12 06:41:46;;;;;;;5.82;1.50;;;23.40;47.80;;;;;;5049976;28;20452;-11
2022/09/12 06:44:18;;;;;;;1.90;1.50;;;23.50;47.80;;;;;;5049447;28;20056;-11
2022/09/12 06:46:44;;;;;;;1.75;1.60;;;23.50;47.70;;;;;;5049315;28;20055;-11
2022/09/12 06:49:10;;;;;;;2.88;1.58;;;23.50;47.60;;;;;;5049460;28;20057;-11
2022/09/12 06:51:36;;;;;;;3.35;1.77;;;23.60;47.50;;;;;;5049385;28;20049;-11
2022/09/12 06:54:02;;;;;;;1.77;1.63;;;23.70;47.50;;;;;;5049339;28;20057;-11
2022/09/12 06:56:28;;;;;;;2.45;1.70;;;23.70;47.40;;;;;;5030891;28;20097;-11
2022/09/12 06:58:58;;;;;;;2.67;1.85;;;23.80;47.20;;;;;;5049097;28;20053;-11
2022/09/12 07:01:24;;;;;;;2.33;1.80;;;23.90;47.00;;;;;;5049110;28;20110;-11
2022/09/12 07:03:52;;;;;;;2.38;1.67;;;24.00;46.70;;;;;;5049291;28;20072;-11
2022/09/12 07:06:20;;;;;;;1.83;1.48;;;24.10;46.40;;;;;;5048864;28;20040;-11
2022/09/12 07:08:46;;;;;;;3.72;1.80;;;24.20;46.20;;;;;;5049348;28;20048;-11
2022/09/12 07:11:13;;;;;;;2.85;1.80;;;24.40;46.00;;;;;;5049297;28;20101;-11
2022/09/12 07:13:40;;;;;;;4.65;1.80;;;24.40;45.90;;;;;;5049051;28;20052;-11
2022/09/12 07:16:06;;;;;;;2.40;1.70;;;24.50;45.80;;;;;;5049101;28;20101;-11
2022/09/12 07:18:37;;;;;;;2.85;1.63;;;24.60;45.60;;;;;;5049326;28;20057;-11
2022/09/12 07:21:04;;;;;;;2.42;1.70;;;24.60;45.50;;;;;;5049145;28;20060;-11
2022/09/12 07:23:31;;;;;;;2.10;1.80;;;24.70;45.20;;;;;;5049034;28;20053;-11
2022/09/12 07:25:58;;;;;;;1.80;1.65;;;24.80;45.10;;;;;;5048889;28;20453;-11
2022/09/12 07:28:25;;;;;;;2.15;1.63;;;24.80;45.00;;;;;;5048540;28;20097;-11
2022/09/12 07:30:52;;;;;;;4.07;1.83;;;24.90;44.90;;;;;;5048450;28;20141;-10
2022/09/12 07:33:19;;;;;;;2.42;1.67;;;24.90;44.70;;;;;;5048662;28;20414;-11
2022/09/12 07:35:45;;;;;;;3.30;1.67;;;25.00;44.70;;;;;;5049152;28;20057;-10
2022/09/12 07:38:10;;;;;;;3.33;1.67;;;25.00;44.60;;;;;;5048734;28;20442;-11
2022/09/12 07:40:36;;;;;;;2.22;1.60;;;25.00;44.50;;;;;;5048588;28;20132;-10
2022/09/12 07:43:02;;;;;;;2.95;1.90;;;25.10;44.50;;;;;;5049420;28;20049;-10
2022/09/12 07:45:28;;;;;;;2.13;1.77;;;25.00;44.50;;;;;;5052279;28;20053;-11
2022/09/12 07:47:54;;;;;;;2.65;1.85;;;25.10;44.50;;;;;;5051734;28;20064;-11
2022/09/12 07:50:20;;;;;;;4.50;1.77;;;25.10;44.50;;;;;;5051466;28;20413;-11
2022/09/12 07:52:45;;;;;;;3.15;2.25;;;25.10;44.40;;;;;;5051934;28;20085;-10
2022/09/12 07:55:12;;;;;;;1.98;1.60;;;25.20;44.40;;;;;;5051651;28;20060;-10
2022/09/12 07:57:37;;;;;;;2.72;1.77;;;25.10;44.40;;;;;;5051494;28;20052;-10
2022/09/12 08:00:04;;;;;;;2.97;1.85;;;25.10;44.30;;;;;;5051393;28;20049;-10
2022/09/12 08:02:38;;;;;;;2.53;1.80;;;25.10;44.30;;;;;;5032773;28;20057;-10
2022/09/12 08:05:03;;;;;;;4.85;1.92;;;25.20;44.40;;;;;;5051405;28;20067;-10
2022/09/12 08:07:29;;;;;;;2.30;1.70;;;25.10;44.20;;;;;;5051090;28;20057;-10
2022/09/12 08:09:55;;;;;;;3.92;2.20;;;25.10;44.30;;;;;;5051882;28;20101;-10
2022/09/12 08:12:21;;;;;;;4.07;1.95;;;25.10;44.30;;;;;;5051502;28;20121;-11
2022/09/12 08:14:49;;;;;;;3.58;1.77;;;25.00;44.30;;;;;;5051519;28;20533;-10
2022/09/12 08:17:15;;;;;;;3.13;2.15;;;25.00;44.40;;;;;;5050078;28;20061;-11
2022/09/12 08:19:41;;;;;;;3.30;1.73;;;25.10;44.50;;;;;;5051210;28;20049;-11
2022/09/12 08:22:07;;;;;;;2.95;2.08;;;25.00;44.50;;;;;;5050989;28;20049;-11
2022/09/12 08:24:33;;;;;;;2.25;1.70;;;25.00;44.60;;;;;;5051599;28;20041;-11
2022/09/12 08:26:58;;;;;;;2.80;2.38;;;24.90;44.60;;;;;;5051232;28;20512;-11
2022/09/12 08:29:24;;;;;;;3.97;2.00;;;24.90;44.70;;;;;;5051271;28;20047;-11
2022/09/12 08:31:49;;;;;;;3.22;2.00;;;24.90;44.80;;;;;;5051168;28;20065;-11
2022/09/12 08:34:17;;;;;;;2.85;2.05;;;24.90;44.90;;;;;;5051400;28;20049;-11
2022/09/12 08:36:43;;;;;;;2.55;1.77;;;24.80;44.90;;;;;;5051072;28;20097;-11
2022/09/12 08:39:11;;;;;;;3.15;1.88;;;24.80;45.00;;;;;;5051143;28;20049;-11
2022/09/12 08:41:46;;;;;;;5.07;2.22;;;24.70;45.00;;;;;;5051020;28;20131;-11
2022/09/12 08:44:44;;;;;;;4.15;2.25;;;24.70;45.10;;;;;;5050961;28;20049;-11
2022/09/12 08:47:14;;;;;;;4.10;2.47;;;24.70;45.20;;;;;;5050684;28;20546;-11
2022/09/12 08:49:58;;;;;;;3.75;2.13;;;24.70;45.50;;;;;;5050991;28;20076;-11
2022/09/12 08:52:44;;;;;;;4.63;2.45;;;24.60;45.60;;;;;;5050514;28;20079;-11
2022/09/12 08:55:33;;;;;;;3.47;1.88;;;24.60;45.70;;;;;;5050554;28;20505;-12
2022/09/12 08:58:01;;;;;;;5.50;2.10;;;24.50;45.90;;;;;;5050724;28;20060;-11
2022/09/12 09:00:45;;;;;;;3.15;2.08;;;24.50;45.90;;;;;;5051020;28;20124;-11
2022/09/12 09:03:54;;;;;;;4.53;2.33;;;24.50;46.00;;;;;;5051378;28;20053;-11
2022/09/12 09:07:01;;;;;;;4.72;2.15;;;24.50;46.10;;;;;;5050415;28;20060;-11
2022/09/12 09:09:53;;;;;;;4.93;2.17;;;24.50;46.10;;;;;;5051281;28;20409;-11
2022/09/12 09:12:51;;;;;;;3.63;2.10;;;24.50;46.10;;;;;;5050412;28;20114;-14
2022/09/12 09:15:32;;;;;;;3.75;2.47;;;24.50;46.10;;;;;;5048287;28;20053;-12
2022/09/12 09:18:03;;;;;;;3.20;2.42;;;24.50;46.20;;;;;;5049327;28;20055;-13
2022/09/12 09:20:51;;;;;;;2.95;1.80;;;24.50;46.20;;;;;;5049221;28;20053;-11
2022/09/12 09:23:25;;;;;;;5.85;2.42;;;24.50;46.20;;;;;;5049888;28;20047;-11
2022/09/12 09:26:16;;;;;;;3.83;2.25;;;24.50;46.20;;;;;;5050067;28;20087;-11
2022/09/12 09:28:53;;;;;;;4.53;2.20;;;24.50;46.10;;;;;;5050361;28;20066;-11
2022/09/12 09:31:25;;;;;;;3.40;2.40;;;24.50;46.10;;;;;;5050790;28;20383;-11
2022/09/12 09:33:54;;;;;;;;;;;24.50;46.60;;;;;;5051226;28;20057;-11
2022/09/12 09:36:42;;;;;;;5.13;2.22;;;24.50;46.10;;;;;;5050686;28;19924;-11
2022/09/12 09:39:26;;;;;;;3.45;2.08;;;24.50;46.10;;;;;;5050189;28;20052;-11
2022/09/12 09:42:19;;;;;;;5.28;2.25;;;24.50;46.10;;;;;;5050669;28;20105;-11
2022/09/12 09:44:47;;;;;;;3.75;2.65;;;24.50;46.10;;;;;;5050180;28;20053;-11
2022/09/12 09:47:14;;;;;;;3.42;2.20;;;24.50;46.20;;;;;;5050146;28;20387;-11
2022/09/12 09:49:40;;;;;;;5.32;2.50;;;24.50;46.20;;;;;;5050137;28;20217;-11
2022/09/12 09:52:07;;;;;;;5.30;2.35;;;24.50;46.20;;;;;;5050298;28;20080;-11
2022/09/12 09:54:41;;;;;;;4.32;2.00;;;24.50;46.70;;;;;;5050256;28;20125;-11
2022/09/12 09:57:35;;;;;;;4.13;2.38;;;24.50;46.10;;;;;;5050216;28;20044;-10
2022/09/12 10:00:24;;;;;;;4.88;2.25;;;24.50;46.10;;;;;;5051614;28;20117;-11
2022/09/12 10:03:07;;;;;;;4.45;2.35;;;24.50;46.10;;;;;;5050389;28;20052;-11
2022/09/12 10:05:43;;;;;;;2.97;2.13;;;24.50;46.10;;;;;;5049290;28;20056;-10
2022/09/12 10:08:09;;;;;;;5.72;2.58;;;24.50;46.10;;;;;;5050112;28;20387;-11
2022/09/12 10:10:35;;;;;;;4.05;2.22;;;24.50;46.10;;;;;;5049880;28;20044;-11
2022/09/12 10:13:19;;;;;;;3.55;2.08;;;24.50;46.10;;;;;;5049796;28;20112;-10
2022/09/12 10:16:00;;;;;;;3.25;2.08;;;24.50;46.10;;;;;;5050259;28;20148;-11
2022/09/12 10:18:39;;;;;;;4.00;2.50;;;24.50;46.00;;;;;;5049729;28;20431;-10
2022/09/12 10:21:15;;;;;;;2.70;2.10;;;24.50;46.00;;;;;;5050026;28;20045;-10
2022/09/12 10:23:42;;;;;;;3.15;2.13;;;24.50;46.00;;;;;;5049751;28;20053;-11
2022/09/12 10:26:11;;;;;;;3.47;2.20;;;24.50;46.00;;;;;;5049925;28;20045;-11
2022/09/12 10:28:42;;;;;;;2.30;1.80;;;24.50;46.00;;;;;;5031508;28;20383;-11
2022/09/12 10:31:09;;;;;;;;;;;24.50;45.90;;;;;;5050509;28;20139;-10
2022/09/12 10:33:41;;;;;;;5.75;2.55;;;24.60;45.90;;;;;;5049852;28;20481;-11
2022/09/12 10:36:07;;;;;;;3.83;2.40;;;24.60;45.90;;;;;;5049582;28;20053;-10
2022/09/12 10:38:33;;;;;;;4.25;2.00;;;24.60;45.90;;;;;;5049399;28;20136;-11
2022/09/12 10:41:08;;;;;;;3.20;2.15;;;24.60;46.00;;;;;;5049908;28;20105;-10
2022/09/12 10:43:36;;;;;;;5.45;2.40;;;24.60;45.90;;;;;;5049775;28;20049;-10
2022/09/12 10:46:26;;;;;;;5.38;2.45;;;24.60;46.00;;;;;;5049409;28;20514;-11
2022/09/12 10:49:37;;;;;;;3.05;2.25;;;24.50;46.00;;;;;;5049282;28;20097;-11
2022/09/12 10:52:23;;;;;;;4.70;2.05;;;24.60;46.00;;;;;;5049521;28;20045;-11
2022/09/12 10:54:50;;;;;;;3.75;2.25;;;24.60;46.00;;;;;;5049776;28;20057;-11
2022/09/12 10:57:50;;;;;;;4.32;2.50;;;24.60;45.90;;;;;;5049193;28;20057;-11
2022/09/12 11:00:26;;;;;;;3.33;1.95;;;24.60;45.90;;;;;;5049360;28;20076;-11
2022/09/12 11:03:04;;;;;;;4.45;2.20;;;24.70;46.10;;;;;;5049735;28;20045;-11
2022/09/12 11:05:39;;;;;;;4.82;2.30;;;24.70;46.10;;;;;;5049025;28;20417;-11
2022/09/12 11:08:10;;;;;;;3.67;2.13;;;24.70;46.10;;;;;;5049270;28;20110;-11
2022/09/12 11:10:58;;;;;;;2.47;1.90;;;24.70;46.20;;;;;;5049286;28;20048;-11
2022/09/12 11:13:54;;;;;;;2.83;2.10;;;24.70;46.20;;;;;;5049330;28;20468;-11
2022/09/12 11:16:31;;;;;;;3.00;2.05;;;24.70;46.10;;;;;;5049057;28;20095;-11
2022/09/12 11:19:18;;;;;;;4.35;2.28;;;24.70;46.10;;;;;;5051238;28;20114;-11
2022/09/12 11:21:54;;;;;;;4.78;2.35;;;24.70;46.00;;;;;;5052157;28;20390;-11
2022/09/12 11:24:42;;;;;;;3.10;2.00;;;24.70;46.00;;;;;;5052583;28;20414;-11
2022/09/12 11:27:24;;;;;;;3.30;1.98;;;24.70;46.10;;;;;;5052129;28;20406;-11
2022/09/12 11:30:11;;;;;;;7.93;2.33;;;24.70;46.00;;;;;;5051767;28;20147;-11
2022/09/12 11:33:04;;;;;;;3.65;2.33;;;24.70;46.20;;;;;;5052008;28;20045;-11
2022/09/12 11:35:48;;;;;;;4.40;2.53;;;24.60;46.20;;;;;;5051807;28;20053;-11
2022/09/12 11:38:32;;;;;;;4.32;2.05;;;24.60;46.50;;;;;;5051748;28;20057;-13
2022/09/12 11:41:05;;;;;;;3.47;2.25;;;24.70;46.50;;;;;;5051806;28;20085;-11
2022/09/12 11:44:13;;;;;;;5.65;2.63;;;24.70;46.50;;;;;;5052349;28;20087;-11
2022/09/12 11:46:42;;;;;;;2.83;1.90;;;24.70;46.60;;;;;;5062119;28;20045;-11
2022/09/12 11:49:14;;;;;;;3.80;2.28;;;24.70;46.50;;;;;;5051703;28;20080;-11
2022/09/12 11:51:58;;;;;;;3.90;2.15;;;24.70;46.60;;;;;;5052139;28;20564;-11
2022/09/12 11:54:40;;;;;;;2.58;1.85;;;24.70;46.60;;;;;;5052188;28;20163;-11
2022/09/12 11:57:24;;;;;;;3.85;2.22;;;24.80;46.60;;;;;;5051528;28;20487;-11
2022/09/12 11:59:57;;;;;;;3.40;2.00;;;24.80;46.50;;;;;;5051896;28;20090;-11
2022/09/12 12:02:28;;;;;;;2.67;1.95;;;24.80;46.50;;;;;;5051775;28;20179;-11
2022/09/12 12:05:23;;;;;;;3.03;1.70;;;24.80;46.50;;;;;;5051321;28;20136;-11
2022/09/12 12:07:55;;;;;;;3.25;2.15;;;24.80;46.50;;;;;;5051323;28;20056;-11
2022/09/12 12:10:40;;;;;;;3.88;2.00;;;24.80;46.50;;;;;;5051680;28;20045;-11
2022/09/12 12:13:21;;;;;;;3.17;1.92;;;24.80;46.50;;;;;;5051645;28;20041;-11
2022/09/12 12:16:03;;;;;;;4.15;1.67;;;24.90;46.50;;;;;;5051034;28;20057;-11
2022/09/12 12:18:31;;;;;;;5.80;1.98;;;24.90;46.40;;;;;;5051027;28;20049;-11
2022/09/12 12:21:26;;;;;;;4.20;2.00;;;24.90;46.20;;;;;;5051171;28;20083;-11
2022/09/12 12:24:07;;;;;;;3.88;2.38;;;24.90;46.50;;;;;;5051599;28;20049;-11
2022/09/12 12:26:41;;;;;;;3.03;1.95;;;24.90;46.50;;;;;;5051575;28;20048;-11
2022/09/12 12:29:14;;;;;;;2.58;2.00;;;24.90;46.50;;;;;;5050804;28;20053;-12
2022/09/12 12:31:58;;;;;;;3.58;1.83;;;24.90;46.40;;;;;;5051167;28;20467;-11
2022/09/12 12:34:38;;;;;;;2.20;1.73;;;24.90;46.30;;;;;;5050844;28;20055;-11
2022/09/12 12:37:19;;;;;;;2.20;1.83;;;24.90;46.40;;;;;;5050900;28;20057;-11
2022/09/12 12:39:49;;;;;;;2.88;1.83;;;24.90;46.50;;;;;;5048355;28;20072;-11
2022/09/12 12:42:33;;;;;;;3.50;2.03;;;24.90;46.40;;;;;;5051299;28;20053;-10
2022/09/12 12:45:08;;;;;;;6.00;2.40;;;24.90;46.40;;;;;;5051100;28;20078;-10
2022/09/12 12:47:36;;;;;;;3.58;1.90;;;24.90;46.50;;;;;;5050690;28;20139;-10
2022/09/12 12:50:20;;;;;;;3.75;1.90;;;24.90;46.40;;;;;;5048999;28;20177;-11
2022/09/12 12:53:03;;;;;;;2.75;1.80;;;25.00;46.20;;;;;;5049920;28;20045;-11
2022/09/12 12:55:49;;;;;;;2.58;2.05;;;25.00;46.10;;;;;;5050475;28;20414;-10
2022/09/12 12:58:36;;;;;;;2.40;1.90;;;25.00;45.90;;;;;;5033187;28;20056;-11
2022/09/12 13:01:21;;;;;;;6.20;2.20;;;25.00;46.50;;;;;;5051028;28;20062;-11
2022/09/12 13:04:01;;;;;;;4.47;2.20;;;25.00;45.80;;;;;;5051005;28;20056;-11
2022/09/12 13:06:43;;;;;;;4.93;1.88;;;25.00;45.80;;;;;;5050684;28;20076;-11
2022/09/12 13:09:23;;;;;;;6.45;2.15;;;25.00;45.80;;;;;;5048101;28;20056;-12
2022/09/12 13:12:04;;;;;;;4.70;1.65;;;25.00;45.80;;;;;;5048635;28;20049;-12
2022/09/12 13:14:46;;;;;;;3.42;1.90;;;25.00;45.90;;;;;;5049421;28;20057;-12
2022/09/12 13:17:36;;;;;;;2.40;2.03;;;24.90;45.80;;;;;;5049892;28;20053;-11
2022/09/12 13:20:19;;;;;;;4.10;2.25;;;24.90;45.80;;;;;;5049991;28;20478;-11